Airfield :
LOGIN :

Register | Disclaimer

   EN    FR    IT 

 










Legend :    VFR   Marginal VFR   IFR   Intensive IFR   Very Intensive IFR
Visi :
Ceiling :
>= 8 km
>= 3000ft
5 to 8 km
1000 to 3000 ft
1500m to 5 km
500 to 1000 ft
800 to 1500m
200 to 500 ft
< 800m
< 200 ft
Symbols :   Thunderstorms  Fog  Heavy snow  Heavy precipitations  Wind > 20 kt
SIGMETs :     Misc.  Thunderstorms  Icing  Turbulence  Mountain Waves  Volcanic Ashes






- Airport Elevation : 348 ft
- IATA code : LDV


LFRJ - Landivisiau

CURRENT METAR :
  • 140930Z AUTO 32006KT 290V350 9999 OVC009 16/15 Q1020 TEMPO BKN012

EXPIRED METARs :
  • 140900Z AUTO 31006KT 280V340 9999 OVC010 15/14 Q1020 TEMPO 2000 DZRA
  • 140830Z AUTO 32007KT 9999 OVC009 15/14 Q1020 TEMPO 2000 DZRA BKN012
  • 140800Z AUTO 31009KT 9999 OVC006 16/15 Q1020 TEMPO 4000 BR
  • 140730Z AUTO 33007KT 9999 -DZ BKN004 OVC013 15/15 Q1020 TEMPO 4000 BR BECMG BKN006
  • 140700Z AUTO 33010KT 5000 BR BKN003 OVC009 15/15 Q1020 TEMPO 0800 FG VV///

TAF TAF LFRJ
Valid from the 14 at 09:00 until the 14 at 18:00 UTC


140800Z 1409/1418 31010KT 9999 BKN008
TEMPO 1409/1410 2000 DZRA OVC005
TEMPO 1410/1418 BKN012



MET'MAP, your aeronautical weather chart ! - Copyright ORBIFLY December 2007 - Disclaimer

ORBIFLY MET'MAP TEAM :

Programming & Development : Alexandra Zaïnal
Concept & original design : Baudouin d'Aumeries
Assistance for programming : Marc-Olivier Méhu
Technical & hardware support : Manuel Goepfert

Contact : metmap@orbifly.com




SOURCES & CREDITS :

   NOAA